createdAt,value
2018-12-30T00:00:08.068Z,14.30
2018-12-30T00:02:36.762Z,9.03
2018-12-30T00:05:05.615Z,10.38
2018-12-30T00:07:34.392Z,12.35
2018-12-30T00:10:02.805Z,10.53
2018-12-30T00:12:31.200Z,7.80
2018-12-30T00:14:59.627Z,10.80
2018-12-30T00:17:28.087Z,10.18
2018-12-30T00:19:56.868Z,10.28
2018-12-30T00:22:25.265Z,7.92
2018-12-30T00:24:53.673Z,7.85
2018-12-30T00:27:22.149Z,8.05
2018-12-30T00:29:50.626Z,9.10
2018-12-30T00:32:19.089Z,4.95
2018-12-30T00:34:47.487Z,8.60
2018-12-30T00:37:15.960Z,6.72
2018-12-30T00:39:44.679Z,6.53
2018-12-30T00:42:13.149Z,4.55
2018-12-30T00:44:41.559Z,6.83
2018-12-30T00:47:10.336Z,6.97
2018-12-30T00:49:38.823Z,6.47
2018-12-30T00:52:07.484Z,7.40
2018-12-30T00:54:35.904Z,10.10
2018-12-30T00:57:04.299Z,6.97
2018-12-30T00:59:32.715Z,8.63
2018-12-30T01:02:01.402Z,8.88
2018-12-30T01:04:29.874Z,9.55
2018-12-30T01:06:58.268Z,9.40
2018-12-30T01:09:26.672Z,9.73
2018-12-30T01:11:55.064Z,6.45
2018-12-30T01:14:23.463Z,6.95
2018-12-30T01:16:51.864Z,6.42
2018-12-30T01:19:20.272Z,7.50
2018-12-30T01:21:48.664Z,4.15
2018-12-30T01:24:17.065Z,6.67
2018-12-30T01:26:45.567Z,4.95
2018-12-30T01:29:13.962Z,6.95
2018-12-30T01:31:42.760Z,5.42
2018-12-30T01:34:11.151Z,6.17
2018-12-30T01:36:39.824Z,8.55
2018-12-30T01:39:08.216Z,9.05
2018-12-30T01:41:36.642Z,10.38
2018-12-30T01:44:05.412Z,11.15
2018-12-30T01:46:33.825Z,6.67
2018-12-30T01:49:02.296Z,7.92
2018-12-30T01:51:33.156Z,6.25
2018-12-30T01:54:00.820Z,6.30
2018-12-30T01:56:29.701Z,7.35
2018-12-30T01:58:58.108Z,5.30
2018-12-30T02:01:26.505Z,6.37
2018-12-30T02:03:54.899Z,6.97
2018-12-30T02:06:23.381Z,5.12
2018-12-30T02:08:52.116Z,3.35
2018-12-30T02:11:20.525Z,4.60
2018-12-30T02:13:48.928Z,5.05
2018-12-30T02:16:17.331Z,4.42
2018-12-30T02:18:45.796Z,3.00
2018-12-30T02:21:14.205Z,4.22
2018-12-30T02:23:42.594Z,2.98
2018-12-30T02:26:10.991Z,3.90
2018-12-30T02:28:39.405Z,5.75
2018-12-30T02:31:07.807Z,7.20
2018-12-30T02:33:36.204Z,3.23
2018-12-30T02:36:04.985Z,3.60
2018-12-30T02:38:33.377Z,4.13
2018-12-30T02:41:01.786Z,4.67
2018-12-30T02:43:30.191Z,6.37
2018-12-30T02:45:58.595Z,7.83
2018-12-30T02:48:27.368Z,5.87
2018-12-30T02:50:55.767Z,4.60
2018-12-30T02:53:24.164Z,6.78
2018-12-30T02:55:52.575Z,5.90
2018-12-30T02:58:20.973Z,6.33
2018-12-30T03:00:49.847Z,7.78
2018-12-30T03:03:18.244Z,8.88
2018-12-30T03:05:46.643Z,6.85
2018-12-30T03:08:15.053Z,6.20
2018-12-30T03:10:43.423Z,8.75
2018-12-30T03:13:12.099Z,8.85
2018-12-30T03:15:40.494Z,8.03
2018-12-30T03:18:08.892Z,7.25
2018-12-30T03:20:37.300Z,7.62
2018-12-30T03:23:05.698Z,8.65
2018-12-30T03:25:34.727Z,7.67
2018-12-30T03:28:03.205Z,7.83
2018-12-30T03:30:31.635Z,8.48
2018-12-30T03:33:00.031Z,8.00
2018-12-30T03:35:28.420Z,10.43
2018-12-30T03:37:56.825Z,10.23
2018-12-30T03:40:25.223Z,11.75
2018-12-30T03:42:53.636Z,10.88
2018-12-30T03:45:22.031Z,13.60
2018-12-30T03:47:50.444Z,12.53
2018-12-30T03:50:18.862Z,13.88
2018-12-30T03:52:47.248Z,13.13
2018-12-30T03:55:15.655Z,14.30
2018-12-30T03:57:44.061Z,16.90
2018-12-30T04:00:12.452Z,14.95
2018-12-30T04:02:41.868Z,14.03
2018-12-30T04:05:10.443Z,17.40
2018-12-30T04:07:38.857Z,17.65
2018-12-30T04:10:07.248Z,19.40
2018-12-30T04:12:35.652Z,16.50
2018-12-30T04:15:04.704Z,18.25
2018-12-30T04:17:33.113Z,15.45
2018-12-30T04:20:01.501Z,16.67
2018-12-30T04:22:29.903Z,18.35
2018-12-30T04:24:58.295Z,16.40
2018-12-30T04:27:26.727Z,18.98
2018-12-30T04:29:55.123Z,19.12
2018-12-30T04:32:23.523Z,18.07
2018-12-30T04:34:51.925Z,17.50
2018-12-30T04:37:20.339Z,23.15
2018-12-30T04:39:48.727Z,18.85
2018-12-30T04:42:17.144Z,15.03
2018-12-30T04:44:45.536Z,14.58
2018-12-30T04:47:13.945Z,10.53
2018-12-30T04:49:42.340Z,14.73
2018-12-30T04:52:10.729Z,13.48
2018-12-30T04:54:39.130Z,12.55
2018-12-30T04:57:07.540Z,11.90
2018-12-30T04:59:36.007Z,12.40
2018-12-30T05:02:04.405Z,20.60
2018-12-30T05:04:33.054Z,15.77
2018-12-30T05:07:01.445Z,16.02
2018-12-30T05:09:29.852Z,15.68
2018-12-30T05:11:58.257Z,12.25
2018-12-30T05:14:30.098Z,13.58
2018-12-30T05:17:10.967Z,11.33
2018-12-30T05:19:46.522Z,9.75
2018-12-30T05:22:22.277Z,9.08
2018-12-30T05:24:50.739Z,10.50
2018-12-30T05:27:19.138Z,10.38
2018-12-30T05:29:47.544Z,8.40
2018-12-30T05:32:15.944Z,10.08
2018-12-30T05:34:44.343Z,12.23
2018-12-30T05:37:12.748Z,7.12
2018-12-30T05:39:41.157Z,10.30
2018-12-30T05:42:09.552Z,7.58
2018-12-30T05:44:37.948Z,8.90
2018-12-30T05:47:08.192Z,13.15
2018-12-30T05:49:36.604Z,10.80
2018-12-30T05:52:04.996Z,13.20
2018-12-30T05:54:33.408Z,12.85
2018-12-30T05:57:01.856Z,16.32
2018-12-30T05:59:30.260Z,16.42
2018-12-30T06:01:58.664Z,17.15
2018-12-30T06:04:27.080Z,16.10
2018-12-30T06:06:55.471Z,16.85
2018-12-30T06:09:23.875Z,18.32
2018-12-30T06:11:52.266Z,14.65
2018-12-30T06:14:20.666Z,15.40
2018-12-30T06:16:49.067Z,17.87
2018-12-30T06:19:17.480Z,15.98
2018-12-30T06:21:45.874Z,17.17
2018-12-30T06:24:14.275Z,17.43
2018-12-30T06:26:42.671Z,14.40
2018-12-30T06:29:11.076Z,11.53
2018-12-30T06:31:39.483Z,14.85
2018-12-30T06:34:08.184Z,13.10
2018-12-30T06:36:36.584Z,13.98
2018-12-30T06:39:06.685Z,11.33
2018-12-30T06:41:35.086Z,11.35
2018-12-30T06:44:03.503Z,13.30
2018-12-30T06:46:31.908Z,9.43
2018-12-30T06:49:00.316Z,10.78
2018-12-30T06:51:28.705Z,10.83
2018-12-30T06:53:57.119Z,10.40
2018-12-30T06:56:25.791Z,8.68
2018-12-30T06:58:54.524Z,10.05
2018-12-30T07:01:22.933Z,10.70
2018-12-30T07:03:51.333Z,10.38
2018-12-30T07:06:19.743Z,9.83
2018-12-30T07:08:48.143Z,8.55
2018-12-30T07:11:16.540Z,14.80
2018-12-30T07:13:44.932Z,10.28
2018-12-30T07:16:13.345Z,10.68
2018-12-30T07:18:42.063Z,10.18
2018-12-30T07:21:10.459Z,10.70
2018-12-30T07:23:38.853Z,9.25
2018-12-30T07:26:07.264Z,14.78
2018-12-30T07:28:35.660Z,10.28
2018-12-30T07:31:04.075Z,13.00
2018-12-30T07:33:32.460Z,14.13
2018-12-30T07:36:00.862Z,10.88
2018-12-30T07:38:29.601Z,14.85
2018-12-30T07:40:58.008Z,14.53
2018-12-30T07:43:26.411Z,13.65
2018-12-30T07:45:54.899Z,15.13
2018-12-30T07:48:23.291Z,12.18
2018-12-30T07:50:51.691Z,13.43
2018-12-30T07:53:20.088Z,10.50
2018-12-30T07:55:48.503Z,12.63
2018-12-30T07:58:16.903Z,10.20
2018-12-30T08:00:45.610Z,10.35
2018-12-30T08:03:14.015Z,12.78
2018-12-30T08:05:42.420Z,10.03
2018-12-30T08:08:10.808Z,9.13
2018-12-30T08:10:39.247Z,11.80
2018-12-30T08:13:07.691Z,11.18
2018-12-30T08:15:36.099Z,9.58
2018-12-30T08:18:04.504Z,9.18
2018-12-30T08:20:32.912Z,10.90
2018-12-30T08:23:01.312Z,11.95
2018-12-30T08:25:29.712Z,11.83
2018-12-30T08:27:58.108Z,12.37
2018-12-30T08:30:26.504Z,16.23
2018-12-30T08:32:56.542Z,9.50
2018-12-30T08:35:24.940Z,13.43
2018-12-30T08:37:53.352Z,8.48
2018-12-30T08:40:21.745Z,9.30
2018-12-30T08:42:50.160Z,12.23
2018-12-30T08:45:18.560Z,11.08
2018-12-30T08:47:46.970Z,12.87
2018-12-30T08:50:15.403Z,11.18
2018-12-30T08:52:43.861Z,13.65
2018-12-30T08:55:12.256Z,15.85
2018-12-30T08:57:40.964Z,10.95
2018-12-30T09:00:09.364Z,9.05
2018-12-30T09:02:37.847Z,9.85
2018-12-30T09:05:06.251Z,11.73
2018-12-30T09:07:34.656Z,13.18
2018-12-30T09:10:03.906Z,15.25
2018-12-30T09:12:32.318Z,14.50
2018-12-30T09:15:00.723Z,14.50
2018-12-30T09:17:29.125Z,13.68
2018-12-30T09:19:57.522Z,14.55
2018-12-30T09:22:25.929Z,13.63
2018-12-30T09:24:54.321Z,14.43
2018-12-30T09:27:22.768Z,12.40
2018-12-30T09:29:51.179Z,12.60
2018-12-30T09:32:19.580Z,12.28
2018-12-30T09:34:47.976Z,13.50
2018-12-30T09:37:16.380Z,14.17
2018-12-30T09:39:44.777Z,13.62
2018-12-30T09:42:13.184Z,17.62
2018-12-30T09:44:41.594Z,14.23
2018-12-30T09:47:10.005Z,13.43
2018-12-30T09:49:38.400Z,13.85
2018-12-30T09:52:06.816Z,15.68
2018-12-30T09:54:35.223Z,10.88
2018-12-30T09:57:03.763Z,17.75
2018-12-30T09:59:32.160Z,14.00
2018-12-30T10:02:00.559Z,14.58
2018-12-30T10:04:28.961Z,11.63
2018-12-30T10:06:57.356Z,16.90
2018-12-30T10:09:25.760Z,13.88
2018-12-30T10:11:54.161Z,11.38
2018-12-30T10:14:22.577Z,12.80
2018-12-30T10:16:50.976Z,13.70
2018-12-30T10:19:19.380Z,12.30
2018-12-30T10:21:47.764Z,11.38
2018-12-30T10:24:16.180Z,14.73
2018-12-30T10:26:44.583Z,10.90
2018-12-30T10:29:12.988Z,14.70
2018-12-30T10:31:41.394Z,14.30
2018-12-30T10:34:09.795Z,13.43
2018-12-30T10:36:38.192Z,17.10
2018-12-30T10:39:06.681Z,14.07
2018-12-30T10:41:35.084Z,11.05
2018-12-30T10:44:03.775Z,13.90
2018-12-30T10:46:32.186Z,11.93
2018-12-30T10:49:00.584Z,17.83
2018-12-30T10:51:28.983Z,10.32
2018-12-30T10:54:00.709Z,13.25
2018-12-30T10:56:27.509Z,13.70
2018-12-30T10:58:55.919Z,13.70
2018-12-30T11:01:24.319Z,11.05
2018-12-30T11:03:52.727Z,14.85
2018-12-30T11:06:21.136Z,14.55
2018-12-30T11:08:49.569Z,14.50
2018-12-30T11:11:18.012Z,12.93
2018-12-30T11:13:46.424Z,13.60
2018-12-30T11:16:14.823Z,13.30
2018-12-30T11:18:43.656Z,16.82
2018-12-30T11:21:12.211Z,14.10
2018-12-30T11:23:40.617Z,14.33
2018-12-30T11:26:09.021Z,15.00
2018-12-30T11:28:37.425Z,14.45
2018-12-30T11:31:05.833Z,15.25
2018-12-30T11:33:34.235Z,14.30
2018-12-30T11:36:02.654Z,12.98
2018-12-30T11:38:31.120Z,13.08
2018-12-30T11:40:59.534Z,11.68
2018-12-30T11:43:27.943Z,11.08
2018-12-30T11:45:56.340Z,14.87
2018-12-30T11:48:24.736Z,13.22
2018-12-30T11:50:53.148Z,13.45
2018-12-30T11:53:21.849Z,16.95
2018-12-30T11:55:50.256Z,15.25
2018-12-30T11:58:18.660Z,12.78
2018-12-30T12:00:47.072Z,15.10
2018-12-30T12:03:15.468Z,13.68
2018-12-30T12:05:43.875Z,14.47
2018-12-30T12:08:12.269Z,14.30
2018-12-30T12:10:40.676Z,15.30
2018-12-30T12:13:09.082Z,15.00
2018-12-30T12:15:38.291Z,16.90
2018-12-30T12:18:06.860Z,22.95
2018-12-30T12:20:35.270Z,18.95
2018-12-30T12:23:03.738Z,16.25
2018-12-30T12:25:32.157Z,18.30
2018-12-30T12:28:00.557Z,15.60
2018-12-30T12:30:28.971Z,16.67
2018-12-30T12:32:57.379Z,17.05
2018-12-30T12:35:25.799Z,16.48
2018-12-30T12:37:54.200Z,16.05
2018-12-30T12:40:22.608Z,16.95
2018-12-30T12:42:51.315Z,16.17
2018-12-30T12:45:19.718Z,14.38
2018-12-30T12:47:48.123Z,17.75
2018-12-30T12:50:16.541Z,16.87
2018-12-30T12:52:44.961Z,13.32
2018-12-30T12:55:13.375Z,13.80
2018-12-30T12:57:41.767Z,17.80
2018-12-30T13:00:11.625Z,19.98
2018-12-30T13:02:40.014Z,13.75
2018-12-30T13:05:08.432Z,14.38
2018-12-30T13:07:36.830Z,15.08
2018-12-30T13:10:10.393Z,17.35
2018-12-30T13:12:39.215Z,18.27
2018-12-30T13:15:08.198Z,18.45
2018-12-30T13:17:36.600Z,14.63
2018-12-30T13:20:05.547Z,16.02
2018-12-30T13:22:33.946Z,16.30
2018-12-30T13:25:02.370Z,16.25
2018-12-30T13:27:30.768Z,18.87
2018-12-30T13:29:59.176Z,16.90
2018-12-30T13:32:27.573Z,13.22
2018-12-30T13:34:55.968Z,16.85
2018-12-30T13:37:24.368Z,14.87
2018-12-30T13:39:52.759Z,12.75
2018-12-30T13:42:21.167Z,14.28
2018-12-30T13:44:49.567Z,15.32
2018-12-30T13:47:18.368Z,14.25
2018-12-30T13:49:46.763Z,16.62
2018-12-30T13:52:15.169Z,13.50
2018-12-30T13:54:47.585Z,14.35
2018-12-30T13:57:13.723Z,12.07
2018-12-30T13:59:42.120Z,14.73
2018-12-30T14:02:10.529Z,13.20
2018-12-30T14:04:38.923Z,14.68
2018-12-30T14:07:07.336Z,12.58
2018-12-30T14:09:36.016Z,14.73
2018-12-30T14:12:04.420Z,12.78
2018-12-30T14:14:32.807Z,13.25
2018-12-30T14:17:01.211Z,16.45
2018-12-30T14:19:29.612Z,13.20
2018-12-30T14:21:58.020Z,14.20
2018-12-30T14:24:26.416Z,14.13
2018-12-30T14:26:59.844Z,15.40
2018-12-30T14:29:24.944Z,14.07
2018-12-30T14:31:53.377Z,17.35
2018-12-30T14:34:21.824Z,18.70
2018-12-30T14:36:50.223Z,16.02
2018-12-30T14:39:18.622Z,14.85
2018-12-30T14:41:48.516Z,17.75
2018-12-30T14:44:16.944Z,15.60
2018-12-30T14:46:45.335Z,14.27
2018-12-30T14:49:13.776Z,15.30
2018-12-30T14:51:43.444Z,13.93
2018-12-30T14:54:11.871Z,19.23
2018-12-30T14:56:40.272Z,16.15
2018-12-30T14:59:08.680Z,12.13
2018-12-30T15:01:37.081Z,9.80
2018-12-30T15:04:05.479Z,15.27
2018-12-30T15:06:33.868Z,18.05
2018-12-30T15:09:02.272Z,16.07
2018-12-30T15:11:30.689Z,17.35
2018-12-30T15:13:59.204Z,15.30
2018-12-30T15:16:27.595Z,15.05
2018-12-30T15:18:55.992Z,15.57
2018-12-30T15:21:24.404Z,14.90
2018-12-30T15:23:52.808Z,14.40
2018-12-30T15:26:21.226Z,16.25
2018-12-30T15:28:49.612Z,16.02
2018-12-30T15:31:18.005Z,18.20
2018-12-30T15:33:46.414Z,22.27
2018-12-30T15:36:14.803Z,18.55
2018-12-30T15:38:43.205Z,17.95
2018-12-30T15:41:11.608Z,17.62
2018-12-30T15:43:40.004Z,15.20
2018-12-30T15:46:08.412Z,20.70
2018-12-30T15:48:36.804Z,20.52
2018-12-30T15:51:05.292Z,18.40
2018-12-30T15:53:33.678Z,20.02
2018-12-30T15:56:02.320Z,16.40
2018-12-30T15:58:30.723Z,19.37
2018-12-30T16:00:59.117Z,15.07
2018-12-30T16:03:27.518Z,18.10
2018-12-30T16:05:57.742Z,14.35
2018-12-30T16:08:26.121Z,12.15
2018-12-30T16:10:54.516Z,18.13
2018-12-30T16:13:22.916Z,16.25
2018-12-30T16:15:51.315Z,14.07
2018-12-30T16:18:21.076Z,15.85
2018-12-30T16:20:49.661Z,14.68
2018-12-30T16:23:18.044Z,15.80
2018-12-30T16:25:46.529Z,13.98
2018-12-30T16:28:14.980Z,13.15
2018-12-30T16:30:43.375Z,11.60
2018-12-30T16:33:11.791Z,13.25
2018-12-30T16:35:40.167Z,17.67
2018-12-30T16:38:08.580Z,14.70
2018-12-30T16:40:36.976Z,15.80
2018-12-30T16:43:05.391Z,16.50
2018-12-30T16:45:33.805Z,15.65
2018-12-30T16:48:02.216Z,15.33
2018-12-30T16:50:30.608Z,17.80
2018-12-30T16:52:59.014Z,15.93
2018-12-30T16:55:34.726Z,17.87
2018-12-30T16:57:57.787Z,17.45
2018-12-30T17:00:26.188Z,17.65
2018-12-30T17:02:54.620Z,13.23
2018-12-30T17:05:23.013Z,14.85
2018-12-30T17:07:51.411Z,15.40
2018-12-30T17:10:19.811Z,17.75
2018-12-30T17:12:48.228Z,26.00
2018-12-30T17:15:16.619Z,17.73
2018-12-30T17:17:45.032Z,16.17
2018-12-30T17:20:13.433Z,23.57
2018-12-30T17:22:41.828Z,18.45
2018-12-30T17:25:10.238Z,23.02
2018-12-30T17:27:38.643Z,22.45
2018-12-30T17:30:09.176Z,21.50
2018-12-30T17:32:37.584Z,18.23
2018-12-30T17:35:05.985Z,19.65
2018-12-30T17:37:34.371Z,14.98
2018-12-30T17:40:03.049Z,17.80
2018-12-30T17:42:31.444Z,16.85
2018-12-30T17:44:59.863Z,16.67
2018-12-30T17:47:28.268Z,23.60
2018-12-30T17:49:57.416Z,17.45
2018-12-30T17:52:25.811Z,19.27
2018-12-30T17:54:54.221Z,23.92
2018-12-30T17:57:22.627Z,23.20
2018-12-30T17:59:51.044Z,24.72
2018-12-30T18:02:19.440Z,18.55
2018-12-30T18:04:47.853Z,22.07
2018-12-30T18:07:16.252Z,20.72
2018-12-30T18:09:44.679Z,23.87
2018-12-30T18:12:13.072Z,23.12
2018-12-30T18:14:41.481Z,20.20
2018-12-30T18:17:09.884Z,24.10
2018-12-30T18:19:38.288Z,23.92
2018-12-30T18:22:06.696Z,27.85
2018-12-30T18:24:35.111Z,19.35
2018-12-30T18:27:03.611Z,22.20
2018-12-30T18:29:32.015Z,19.80
2018-12-30T18:32:00.412Z,18.30
2018-12-30T18:34:28.848Z,21.48
2018-12-30T18:36:57.291Z,23.27
2018-12-30T18:39:25.712Z,22.20
2018-12-30T18:41:54.118Z,22.37
2018-12-30T18:44:22.514Z,18.87
2018-12-30T18:46:50.923Z,19.27
2018-12-30T18:49:19.313Z,25.12
2018-12-30T18:51:47.744Z,24.23
2018-12-30T18:54:16.148Z,26.10
2018-12-30T18:56:44.560Z,21.27
2018-12-30T18:59:12.971Z,24.92
2018-12-30T19:01:41.379Z,22.45
2018-12-30T19:04:09.781Z,20.27
2018-12-30T19:06:38.188Z,20.75
2018-12-30T19:09:06.587Z,23.27
2018-12-30T19:11:34.995Z,20.10
2018-12-30T19:14:03.385Z,23.25
2018-12-30T19:16:31.794Z,23.95
2018-12-30T19:19:00.184Z,22.85
2018-12-30T19:21:28.587Z,23.38
2018-12-30T19:23:56.983Z,15.80
2018-12-30T19:26:25.410Z,23.57
2018-12-30T19:28:54.737Z,18.70
2018-12-30T19:31:23.130Z,16.80
2018-12-30T19:33:51.535Z,18.73
2018-12-30T19:36:19.940Z,21.85
2018-12-30T19:38:48.340Z,15.90
2018-12-30T19:41:17.218Z,16.00
2018-12-30T19:43:45.608Z,15.20
2018-12-30T19:46:14.008Z,15.53
2018-12-30T19:48:42.404Z,19.05
2018-12-30T19:51:11.344Z,20.48
2018-12-30T19:53:39.748Z,19.02
2018-12-30T19:56:08.163Z,15.48
2018-12-30T19:58:36.559Z,15.38
2018-12-30T20:01:04.996Z,16.75
2018-12-30T20:03:33.439Z,15.95
2018-12-30T20:06:01.845Z,17.87
2018-12-30T20:08:30.247Z,18.23
2018-12-30T20:10:58.656Z,16.32
2018-12-30T20:13:27.075Z,22.87
2018-12-30T20:15:55.477Z,17.67
2018-12-30T20:18:23.876Z,20.65
2018-12-30T20:20:52.275Z,19.17
2018-12-30T20:23:20.692Z,19.73
2018-12-30T20:25:49.080Z,20.17
2018-12-30T20:28:17.492Z,19.55
2018-12-30T20:30:45.891Z,19.73
2018-12-30T20:33:15.072Z,15.58
2018-12-30T20:35:43.471Z,17.20
2018-12-30T20:38:11.881Z,16.60
2018-12-30T20:40:40.275Z,19.62
2018-12-30T20:43:08.685Z,12.18
2018-12-30T20:45:37.083Z,20.20
2018-12-30T20:48:05.487Z,17.98
2018-12-30T20:50:33.884Z,14.05
2018-12-30T20:53:02.624Z,16.05
2018-12-30T20:55:31.025Z,24.30
2018-12-30T20:57:59.425Z,20.80
2018-12-30T21:00:27.823Z,13.53
2018-12-30T21:02:56.232Z,23.18
2018-12-30T21:05:24.627Z,18.35
2018-12-30T21:07:53.284Z,22.77
2018-12-30T21:10:21.676Z,22.85
2018-12-30T21:12:50.080Z,20.68
2018-12-30T21:15:18.484Z,19.37
2018-12-30T21:17:46.888Z,23.25
2018-12-30T21:20:15.295Z,21.10
2018-12-30T21:22:43.705Z,17.20
2018-12-30T21:25:12.896Z,24.23
2018-12-30T21:27:41.307Z,23.60
2018-12-30T21:30:09.700Z,18.55
2018-12-30T21:32:38.107Z,19.07
2018-12-30T21:35:06.880Z,19.85
2018-12-30T21:37:35.284Z,18.37
2018-12-30T21:40:04.747Z,20.20
2018-12-30T21:42:33.153Z,23.25
2018-12-30T21:45:01.556Z,22.82
2018-12-30T21:47:29.976Z,21.87
2018-12-30T21:49:58.380Z,19.73
2018-12-30T21:52:26.798Z,25.30
2018-12-30T21:54:55.207Z,22.15
2018-12-30T21:57:23.655Z,24.52
2018-12-30T21:59:52.051Z,26.07
2018-12-30T22:02:20.464Z,20.02
2018-12-30T22:04:48.875Z,24.77
2018-12-30T22:07:17.279Z,21.85
2018-12-30T22:09:45.690Z,19.45
2018-12-30T22:12:14.106Z,24.40
2018-12-30T22:14:42.511Z,23.92
2018-12-30T22:17:11.003Z,18.60
2018-12-30T22:19:39.403Z,24.47
2018-12-30T22:22:07.890Z,21.55
2018-12-30T22:24:36.364Z,23.15
2018-12-30T22:27:04.812Z,22.70
2018-12-30T22:29:33.226Z,22.35
2018-12-30T22:32:01.626Z,18.92
2018-12-30T22:34:30.045Z,22.73
2018-12-30T22:36:58.444Z,22.70
2018-12-30T22:39:26.850Z,25.15
2018-12-30T22:41:55.263Z,20.53
2018-12-30T22:44:23.681Z,20.65
2018-12-30T22:46:52.076Z,23.10
2018-12-30T22:49:20.491Z,19.48
2018-12-30T22:51:48.945Z,20.05
2018-12-30T22:54:17.359Z,20.00
2018-12-30T22:56:45.752Z,22.00
2018-12-30T22:59:14.176Z,20.62
2018-12-30T23:01:42.571Z,23.40
2018-12-30T23:04:10.983Z,21.73
2018-12-30T23:06:40.656Z,22.67
2018-12-30T23:09:09.387Z,22.35
2018-12-30T23:11:37.779Z,23.52
2018-12-30T23:14:06.191Z,25.12
2018-12-30T23:16:34.615Z,21.17
2018-12-30T23:19:03.007Z,25.25
2018-12-30T23:21:31.432Z,21.57
2018-12-30T23:23:59.820Z,24.07
2018-12-30T23:26:28.227Z,23.30
2018-12-30T23:28:56.628Z,25.57
2018-12-30T23:31:25.052Z,26.85
2018-12-30T23:33:53.451Z,25.00
2018-12-30T23:36:21.859Z,28.23
2018-12-30T23:38:50.251Z,26.40
2018-12-30T23:41:18.666Z,29.02
2018-12-30T23:43:47.059Z,28.65
2018-12-30T23:46:15.468Z,33.48
2018-12-30T23:48:44.325Z,30.37
2018-12-30T23:51:32.071Z,33.92
2018-12-30T23:54:00.471Z,32.85
2018-12-30T23:56:28.868Z,28.98
2018-12-30T23:58:57.268Z,31.65
